createdAt,value
2023-02-16T00:00:09.133Z,25.70
2023-02-16T00:02:11.004Z,25.70
2023-02-16T00:04:20.543Z,25.70
2023-02-16T00:06:23.883Z,26.00
2023-02-16T00:08:25.616Z,26.00
2023-02-16T00:10:31.854Z,26.10
2023-02-16T00:12:52.084Z,26.20
2023-02-16T00:14:55.352Z,26.10
2023-02-16T00:16:59.065Z,26.10
2023-02-16T00:19:00.824Z,26.30
2023-02-16T00:21:05.453Z,26.40
2023-02-16T00:23:07.198Z,26.70
2023-02-16T00:25:09.482Z,26.50
2023-02-16T00:27:16.142Z,26.70
2023-02-16T00:29:26.640Z,26.80
2023-02-16T00:31:33.726Z,26.70
2023-02-16T00:33:38.137Z,26.70
2023-02-16T00:35:47.148Z,26.70
2023-02-16T00:37:50.940Z,26.60
2023-02-16T00:39:55.388Z,26.60
2023-02-16T00:42:18.452Z,26.60
2023-02-16T00:44:27.016Z,26.70
2023-02-16T00:46:28.771Z,26.70
2023-02-16T00:48:31.280Z,26.60
2023-02-16T00:50:34.476Z,26.60
2023-02-16T00:52:39.208Z,26.60
2023-02-16T00:54:40.818Z,26.70
2023-02-16T00:56:45.221Z,26.70
2023-02-16T00:58:49.226Z,26.80
2023-02-16T01:01:04.817Z,26.90
2023-02-16T01:03:11.419Z,27.20
2023-02-16T01:05:13.378Z,27.10
2023-02-16T01:07:37.146Z,27.00
2023-02-16T01:10:00.175Z,27.10
2023-02-16T01:12:14.709Z,26.90
2023-02-16T01:14:17.016Z,27.20
2023-02-16T01:16:20.201Z,27.10
2023-02-16T01:18:22.380Z,27.10
2023-02-16T01:20:27.425Z,27.10
2023-02-16T01:22:33.326Z,27.10
2023-02-16T01:24:35.067Z,27.20
2023-02-16T01:26:41.761Z,27.00
2023-02-16T01:28:44.437Z,27.10
2023-02-16T01:30:46.369Z,27.10
2023-02-16T01:32:54.155Z,27.10
2023-02-16T01:35:01.648Z,27.20
2023-02-16T01:37:05.388Z,27.30
2023-02-16T01:39:07.658Z,27.30
2023-02-16T01:41:32.279Z,27.80
2023-02-16T01:43:47.391Z,28.10
2023-02-16T01:45:57.038Z,27.90
2023-02-16T01:48:06.978Z,27.70
2023-02-16T01:50:31.777Z,27.60
2023-02-16T01:52:47.572Z,28.00
2023-02-16T01:55:26.645Z,27.70
2023-02-16T01:57:56.155Z,28.00
2023-02-16T01:59:57.900Z,27.70
2023-02-16T02:02:06.527Z,27.60
2023-02-16T02:04:45.700Z,27.90
2023-02-16T02:06:47.977Z,27.90
2023-02-16T02:08:55.215Z,27.50
2023-02-16T02:11:00.974Z,27.60
2023-02-16T02:13:08.846Z,27.70
2023-02-16T02:15:14.746Z,27.90
2023-02-16T02:17:19.905Z,27.90
2023-02-16T02:19:24.764Z,28.10
2023-02-16T02:21:52.512Z,28.00
2023-02-16T02:24:30.861Z,28.00
2023-02-16T02:27:02.655Z,28.70
2023-02-16T02:29:16.028Z,28.60
2023-02-16T02:31:49.143Z,28.20
2023-02-16T02:33:59.182Z,28.90
2023-02-16T02:36:23.465Z,28.70
2023-02-16T02:38:40.208Z,28.80
2023-02-16T02:41:10.412Z,28.50
2023-02-16T02:43:18.352Z,28.90
2023-02-16T02:45:29.222Z,28.50
2023-02-16T02:47:44.048Z,28.70
2023-02-16T02:49:52.888Z,28.80
2023-02-16T02:51:56.020Z,28.90
2023-02-16T02:54:24.169Z,28.90
2023-02-16T02:56:48.595Z,28.80
2023-02-16T02:59:15.723Z,28.70
2023-02-16T03:01:20.398Z,29.00
2023-02-16T03:03:35.903Z,28.70
2023-02-16T03:05:41.292Z,29.30
2023-02-16T03:07:46.591Z,28.90
2023-02-16T03:10:10.968Z,29.10
2023-02-16T03:12:33.237Z,29.20
2023-02-16T03:14:44.818Z,29.20
2023-02-16T03:17:16.231Z,29.40
2023-02-16T03:19:37.514Z,29.30
2023-02-16T03:22:02.307Z,29.10
2023-02-16T03:24:27.821Z,29.10
2023-02-16T03:26:50.582Z,29.10
2023-02-16T03:29:12.076Z,28.90
2023-02-16T03:31:37.078Z,29.00
2023-02-16T03:33:39.578Z,29.40
2023-02-16T03:35:41.652Z,28.80
2023-02-16T03:37:45.753Z,28.90
2023-02-16T03:40:08.527Z,28.90
2023-02-16T03:42:10.212Z,29.00
2023-02-16T03:44:14.346Z,29.00
2023-02-16T03:46:18.422Z,29.10
2023-02-16T03:48:22.840Z,29.20
2023-02-16T03:50:26.975Z,29.10
2023-02-16T03:52:28.715Z,29.10
2023-02-16T03:54:30.366Z,29.10
2023-02-16T03:56:32.045Z,29.10
2023-02-16T03:58:34.027Z,29.10
2023-02-16T04:00:39.122Z,29.00
2023-02-16T04:02:41.043Z,29.00
2023-02-16T04:04:45.155Z,29.00
2023-02-16T04:06:51.379Z,29.00
2023-02-16T04:08:54.467Z,29.10
2023-02-16T04:10:57.445Z,29.00
2023-02-16T04:12:59.280Z,29.00
2023-02-16T04:15:03.382Z,28.90
2023-02-16T04:17:05.045Z,29.00
2023-02-16T04:19:07.836Z,29.00
2023-02-16T04:21:09.782Z,29.00
2023-02-16T04:23:12.392Z,29.00
2023-02-16T04:25:15.447Z,29.10
2023-02-16T04:27:17.229Z,29.10
2023-02-16T04:29:18.987Z,29.00
2023-02-16T04:31:23.042Z,29.00
2023-02-16T04:33:25.019Z,29.10
2023-02-16T04:35:28.776Z,29.00
2023-02-16T04:37:30.950Z,29.00
2023-02-16T04:39:33.066Z,29.00
2023-02-16T04:41:34.819Z,29.10
2023-02-16T04:43:36.983Z,29.00
2023-02-16T04:45:38.725Z,29.20
2023-02-16T04:47:42.779Z,29.20
2023-02-16T04:49:44.672Z,29.30
2023-02-16T04:51:46.351Z,29.30
2023-02-16T04:53:48.124Z,29.40
2023-02-16T04:55:50.407Z,29.50
2023-02-16T04:57:53.284Z,29.50
2023-02-16T04:59:55.271Z,29.50
2023-02-16T05:01:57.675Z,29.40
2023-02-16T05:03:59.515Z,29.30
2023-02-16T05:06:02.533Z,29.30
2023-02-16T05:08:04.495Z,29.20
2023-02-16T05:10:09.022Z,29.10
2023-02-16T05:12:30.062Z,29.20
2023-02-16T05:14:44.258Z,29.00
2023-02-16T05:16:48.747Z,29.00
2023-02-16T05:18:50.490Z,29.10
2023-02-16T05:21:10.852Z,28.90
2023-02-16T05:23:12.508Z,29.00
2023-02-16T05:25:14.182Z,29.00
2023-02-16T05:27:22.237Z,29.00
2023-02-16T05:29:24.150Z,29.00
2023-02-16T05:31:28.898Z,29.00
2023-02-16T05:33:30.653Z,29.00
2023-02-16T05:35:36.191Z,29.00
2023-02-16T05:37:37.981Z,29.10
2023-02-16T05:39:39.829Z,29.00
2023-02-16T05:41:41.520Z,29.00
2023-02-16T05:43:45.216Z,29.00
2023-02-16T05:45:50.208Z,29.00
2023-02-16T05:47:53.100Z,29.20
2023-02-16T05:49:54.858Z,29.20
2023-02-16T05:51:56.567Z,29.20
2023-02-16T05:53:58.549Z,29.20
2023-02-16T05:56:00.337Z,29.30
2023-02-16T05:58:03.429Z,29.20
2023-02-16T06:00:05.816Z,29.40
2023-02-16T06:02:09.735Z,29.40
2023-02-16T06:04:13.008Z,29.40
2023-02-16T06:06:14.943Z,29.40
2023-02-16T06:08:16.591Z,29.40
2023-02-16T06:10:21.377Z,29.60
2023-02-16T06:12:29.754Z,29.50
2023-02-16T06:14:31.435Z,29.60
2023-02-16T06:16:34.217Z,29.60
2023-02-16T06:18:37.585Z,29.50
2023-02-16T06:20:40.636Z,29.50
2023-02-16T06:22:43.449Z,29.50
2023-02-16T06:24:45.110Z,30.00
2023-02-16T06:26:46.823Z,29.40
2023-02-16T06:28:51.372Z,29.30
2023-02-16T06:30:53.085Z,29.30
2023-02-16T06:32:54.963Z,29.30
2023-02-16T06:34:57.024Z,29.40
2023-02-16T06:36:58.764Z,29.40
2023-02-16T06:39:00.579Z,29.30
2023-02-16T06:41:02.521Z,29.30
2023-02-16T06:43:04.800Z,29.30
2023-02-16T06:45:06.790Z,29.20
2023-02-16T06:47:08.451Z,29.20
2023-02-16T06:49:16.683Z,29.30
2023-02-16T06:51:18.662Z,29.50
2023-02-16T06:53:20.855Z,29.60
2023-02-16T06:55:22.490Z,29.60
2023-02-16T06:57:24.239Z,29.80
2023-02-16T06:59:25.965Z,29.80
2023-02-16T07:01:27.872Z,29.80
2023-02-16T07:03:29.639Z,29.80
2023-02-16T07:05:34.932Z,29.80
2023-02-16T07:07:36.628Z,29.90
2023-02-16T07:09:40.735Z,30.00
2023-02-16T07:11:43.652Z,30.00
2023-02-16T07:13:45.727Z,30.10
2023-02-16T07:15:47.492Z,30.10
2023-02-16T07:17:49.168Z,30.50
2023-02-16T07:19:50.972Z,30.50
2023-02-16T07:21:54.342Z,30.90
2023-02-16T07:23:56.041Z,31.10
2023-02-16T07:26:00.352Z,31.20
2023-02-16T07:28:02.126Z,31.30
2023-02-16T07:30:04.153Z,31.20
2023-02-16T07:32:06.107Z,31.30
2023-02-16T07:34:07.930Z,31.20
2023-02-16T07:36:13.153Z,31.20
2023-02-16T07:38:14.903Z,31.40
2023-02-16T07:40:16.635Z,31.30
2023-02-16T07:42:19.613Z,31.40
2023-02-16T07:44:22.635Z,31.60
2023-02-16T07:46:24.397Z,31.60
2023-02-16T07:48:26.267Z,31.70
2023-02-16T07:50:30.446Z,31.90
2023-02-16T07:52:32.198Z,32.10
2023-02-16T07:54:34.015Z,32.20
2023-02-16T07:56:38.137Z,31.80
2023-02-16T07:58:40.039Z,31.80
2023-02-16T08:00:41.659Z,31.60
2023-02-16T08:02:44.737Z,31.40
2023-02-16T08:04:48.594Z,31.20
2023-02-16T08:06:52.635Z,30.90
2023-02-16T08:08:54.301Z,30.70
2023-02-16T08:10:56.011Z,30.50
2023-02-16T08:12:57.700Z,30.40
2023-02-16T08:14:59.667Z,30.20
2023-02-16T08:17:04.113Z,30.10
2023-02-16T08:19:06.041Z,30.20
2023-02-16T08:21:16.072Z,30.30
2023-02-16T08:23:17.819Z,30.70
2023-02-16T08:25:22.620Z,30.60
2023-02-16T08:27:26.926Z,30.90
2023-02-16T08:29:29.112Z,31.00
2023-02-16T08:31:32.620Z,31.20
2023-02-16T08:33:34.846Z,31.30
2023-02-16T08:35:38.567Z,31.50
2023-02-16T08:37:41.365Z,31.40
2023-02-16T08:39:43.206Z,31.40
2023-02-16T08:41:47.183Z,31.40
2023-02-16T08:43:50.968Z,31.40
2023-02-16T08:45:52.905Z,31.40
2023-02-16T08:47:54.966Z,31.20
2023-02-16T08:49:56.770Z,31.30
2023-02-16T08:52:01.910Z,31.20
2023-02-16T08:54:06.020Z,30.90
2023-02-16T08:56:09.754Z,30.70
2023-02-16T08:58:11.470Z,30.50
2023-02-16T09:00:34.878Z,30.40
2023-02-16T09:02:36.625Z,30.40
2023-02-16T09:04:38.445Z,30.20
2023-02-16T09:06:42.492Z,30.20
2023-02-16T09:08:46.376Z,30.20
2023-02-16T09:10:48.049Z,30.10
2023-02-16T09:12:52.465Z,30.10
2023-02-16T09:14:54.370Z,30.20
2023-02-16T09:16:56.225Z,30.10
2023-02-16T09:18:59.040Z,30.00
2023-02-16T09:21:11.037Z,30.00
2023-02-16T09:23:12.832Z,30.00
2023-02-16T09:25:17.042Z,30.00
2023-02-16T09:27:20.107Z,29.90
2023-02-16T09:29:21.886Z,30.00
2023-02-16T09:31:27.730Z,29.90
2023-02-16T09:33:31.872Z,29.90
2023-02-16T09:35:33.622Z,30.00
2023-02-16T09:37:38.000Z,30.00
2023-02-16T09:39:43.278Z,30.00
2023-02-16T09:42:22.812Z,30.00
2023-02-16T09:44:56.341Z,29.90
2023-02-16T09:47:04.735Z,29.70
2023-02-16T09:49:10.475Z,29.60
2023-02-16T09:51:29.456Z,29.40
2023-02-16T09:53:39.405Z,29.40
2023-02-16T09:55:58.081Z,29.50
2023-02-16T09:58:12.752Z,29.50
2023-02-16T10:00:30.263Z,29.60
2023-02-16T10:03:01.697Z,29.90
2023-02-16T10:05:12.748Z,30.40
2023-02-16T10:07:29.164Z,30.80
2023-02-16T10:09:33.289Z,30.80
2023-02-16T10:11:49.382Z,30.10
2023-02-16T10:13:57.238Z,29.80
2023-02-16T10:16:01.631Z,29.10
2023-02-16T10:18:22.224Z,28.80
2023-02-16T10:20:32.624Z,28.60
2023-02-16T10:22:55.870Z,28.50
2023-02-16T10:25:26.248Z,28.60
2023-02-16T10:27:36.909Z,28.50
2023-02-16T10:29:38.582Z,28.00
2023-02-16T10:31:45.368Z,27.90
2023-02-16T10:33:55.899Z,28.10
2023-02-16T10:36:01.432Z,28.10
2023-02-16T10:38:32.994Z,28.20
2023-02-16T10:40:57.823Z,28.10
2023-02-16T10:43:02.842Z,27.90
2023-02-16T10:45:13.602Z,27.80
2023-02-16T10:47:28.394Z,27.80
2023-02-16T10:49:32.681Z,27.70
2023-02-16T10:51:38.141Z,27.70
2023-02-16T10:53:59.481Z,27.90
2023-02-16T10:56:02.655Z,27.80
2023-02-16T10:58:04.424Z,27.70
2023-02-16T11:00:12.225Z,27.80
2023-02-16T11:02:20.055Z,27.70
2023-02-16T11:04:43.278Z,27.80
2023-02-16T11:07:05.870Z,27.20
2023-02-16T11:09:15.283Z,27.10
2023-02-16T11:11:22.672Z,27.00
2023-02-16T11:13:27.265Z,26.80
2023-02-16T11:15:29.702Z,26.60
2023-02-16T11:17:47.009Z,26.50
2023-02-16T11:20:05.475Z,26.40
2023-02-16T11:22:24.428Z,26.40
2023-02-16T11:24:30.396Z,26.30
2023-02-16T11:26:32.096Z,26.30
2023-02-16T11:28:42.849Z,26.00
2023-02-16T11:30:45.052Z,25.90
2023-02-16T11:32:46.837Z,25.90
2023-02-16T11:34:55.417Z,25.80
2023-02-16T11:37:16.324Z,25.70
2023-02-16T11:39:23.695Z,25.70
2023-02-16T11:41:26.921Z,25.70
2023-02-16T11:43:32.937Z,25.00
2023-02-16T11:45:36.407Z,24.90
2023-02-16T11:47:42.006Z,24.90
2023-02-16T11:49:44.885Z,24.80
2023-02-16T11:51:46.556Z,24.70
2023-02-16T11:54:01.737Z,24.80
2023-02-16T11:56:27.407Z,25.10
2023-02-16T11:58:29.321Z,25.10
2023-02-16T12:00:31.685Z,25.20
2023-02-16T12:02:55.216Z,25.40
2023-02-16T12:05:08.860Z,25.30
2023-02-16T12:07:29.415Z,25.20
2023-02-16T12:09:49.796Z,25.20
2023-02-16T12:12:12.331Z,25.40
2023-02-16T12:14:30.467Z,26.00
2023-02-16T12:16:57.943Z,25.50
2023-02-16T12:19:24.434Z,25.30
2023-02-16T12:21:41.243Z,25.30
2023-02-16T12:24:01.624Z,25.20
2023-02-16T12:26:20.634Z,25.20
2023-02-16T12:28:38.313Z,25.30
2023-02-16T12:31:04.109Z,25.20
2023-02-16T12:33:23.042Z,25.30
2023-02-16T12:35:52.995Z,25.30
2023-02-16T12:38:39.180Z,25.30
2023-02-16T12:40:51.455Z,25.40
2023-02-16T12:43:03.138Z,25.40
2023-02-16T12:45:15.104Z,25.50
2023-02-16T12:47:30.022Z,25.60
2023-02-16T12:50:06.296Z,26.40
2023-02-16T12:52:30.641Z,26.00
2023-02-16T12:54:48.049Z,26.00
2023-02-16T12:57:00.639Z,26.00
2023-02-16T12:59:23.652Z,26.20
2023-02-16T13:01:33.392Z,26.20
2023-02-16T13:03:44.707Z,26.30
2023-02-16T13:05:53.143Z,26.60
2023-02-16T13:08:16.914Z,26.70
2023-02-16T13:10:43.374Z,27.00
2023-02-16T13:12:56.651Z,27.60
2023-02-16T13:15:16.501Z,27.10
2023-02-16T13:17:27.184Z,27.10
2023-02-16T13:19:29.033Z,27.20
2023-02-16T13:21:53.907Z,27.30
2023-02-16T13:24:30.925Z,27.40
2023-02-16T13:26:36.519Z,27.30
2023-02-16T13:28:51.400Z,27.40
2023-02-16T13:31:29.833Z,27.70
2023-02-16T13:33:37.640Z,27.80
2023-02-16T13:36:00.893Z,27.60
2023-02-16T13:38:27.786Z,27.50
2023-02-16T13:41:09.818Z,27.30
2023-02-16T13:43:25.851Z,27.40
2023-02-16T13:45:35.057Z,27.40
2023-02-16T13:47:41.514Z,27.50
2023-02-16T13:49:43.614Z,27.40
2023-02-16T13:51:47.133Z,27.40
2023-02-16T13:53:56.603Z,27.50
2023-02-16T13:56:29.700Z,27.50
2023-02-16T13:58:32.519Z,27.50
2023-02-16T14:00:45.022Z,27.40
2023-02-16T14:03:03.258Z,27.50
2023-02-16T14:05:11.760Z,27.50
2023-02-16T14:07:31.152Z,27.50
2023-02-16T14:09:35.572Z,27.40
2023-02-16T14:12:11.445Z,27.40
2023-02-16T14:14:51.058Z,27.50
2023-02-16T14:16:57.830Z,27.70
2023-02-16T14:19:24.913Z,27.60
2023-02-16T14:21:36.458Z,27.70
2023-02-16T14:23:38.211Z,27.70
2023-02-16T14:25:40.389Z,28.00
2023-02-16T14:28:06.870Z,28.00
2023-02-16T14:30:22.504Z,28.10
2023-02-16T14:32:40.190Z,28.10
2023-02-16T14:35:08.752Z,28.10
2023-02-16T14:37:16.880Z,28.10
2023-02-16T14:39:22.675Z,28.10
2023-02-16T14:41:29.581Z,28.20
2023-02-16T14:43:45.954Z,28.20
2023-02-16T14:46:10.691Z,28.20
2023-02-16T14:48:41.108Z,28.20
2023-02-16T14:50:56.027Z,28.20
2023-02-16T14:53:25.789Z,28.40
2023-02-16T14:56:05.363Z,28.40
2023-02-16T14:58:40.574Z,28.50
2023-02-16T15:00:49.541Z,28.50
2023-02-16T15:03:03.863Z,28.50
2023-02-16T15:05:17.659Z,28.60
2023-02-16T15:07:19.835Z,28.70
2023-02-16T15:09:35.419Z,28.60
2023-02-16T15:12:00.903Z,28.60
2023-02-16T15:14:09.291Z,28.60
2023-02-16T15:16:15.227Z,28.70
2023-02-16T15:18:24.116Z,28.70
2023-02-16T15:20:37.655Z,28.70
2023-02-16T15:22:44.266Z,28.50
2023-02-16T15:24:58.061Z,28.40
2023-02-16T15:27:01.606Z,28.40
2023-02-16T15:29:26.802Z,28.40
2023-02-16T15:31:38.664Z,28.50
2023-02-16T15:33:52.560Z,28.50
2023-02-16T15:35:56.825Z,28.50
2023-02-16T15:38:20.482Z,28.50
2023-02-16T15:40:31.714Z,28.50
2023-02-16T15:42:34.117Z,28.50
2023-02-16T15:44:38.965Z,28.50
2023-02-16T15:46:43.575Z,28.40
2023-02-16T15:48:45.889Z,28.20
2023-02-16T15:50:48.823Z,28.10
2023-02-16T15:52:54.730Z,28.20
2023-02-16T15:54:57.000Z,28.10
2023-02-16T15:57:00.964Z,27.90
2023-02-16T15:59:23.554Z,27.90
2023-02-16T16:01:35.212Z,27.90
2023-02-16T16:03:37.446Z,27.90
2023-02-16T16:05:43.462Z,27.90
2023-02-16T16:07:46.780Z,27.90
2023-02-16T16:09:50.028Z,27.90
2023-02-16T16:11:55.195Z,27.80
2023-02-16T16:14:02.671Z,27.80
2023-02-16T16:16:06.989Z,27.70
2023-02-16T16:18:37.291Z,27.60
2023-02-16T16:20:42.092Z,27.60
2023-02-16T16:22:44.574Z,27.40
2023-02-16T16:24:51.827Z,27.40
2023-02-16T16:26:57.284Z,27.30
2023-02-16T16:28:59.342Z,27.30
2023-02-16T16:31:32.909Z,27.20
2023-02-16T16:34:04.688Z,27.20
2023-02-16T16:36:12.683Z,27.30
2023-02-16T16:38:41.533Z,27.20
2023-02-16T16:40:49.443Z,27.10
2023-02-16T16:43:07.926Z,27.00
2023-02-16T16:45:23.912Z,27.10
2023-02-16T16:47:27.327Z,27.10
2023-02-16T16:49:29.024Z,27.00
2023-02-16T16:51:40.537Z,27.40
2023-02-16T16:54:00.404Z,27.00
2023-02-16T16:56:02.458Z,26.90
2023-02-16T16:58:07.983Z,26.90
2023-02-16T17:00:11.211Z,26.80
2023-02-16T17:02:12.832Z,26.80
2023-02-16T17:04:16.985Z,26.90
2023-02-16T17:06:23.946Z,26.90
2023-02-16T17:08:31.190Z,26.80
2023-02-16T17:10:34.192Z,26.70
2023-02-16T17:12:36.202Z,26.70
2023-02-16T17:14:37.990Z,26.80
2023-02-16T17:16:42.889Z,26.80
2023-02-16T17:18:44.602Z,26.70
2023-02-16T17:20:46.788Z,26.60
2023-02-16T17:22:48.560Z,26.60
2023-02-16T17:24:50.321Z,26.60
2023-02-16T17:26:53.301Z,26.70
2023-02-16T17:29:00.872Z,26.80
2023-02-16T17:31:17.721Z,26.70
2023-02-16T17:33:21.927Z,26.80
2023-02-16T17:35:23.936Z,26.70
2023-02-16T17:37:26.171Z,26.80
2023-02-16T17:39:30.543Z,26.70
2023-02-16T17:41:32.748Z,26.70
2023-02-16T17:43:34.451Z,26.80
2023-02-16T17:45:36.134Z,26.80
2023-02-16T17:47:38.206Z,27.30
2023-02-16T17:49:39.904Z,26.80
2023-02-16T17:51:42.066Z,26.80
2023-02-16T17:53:46.091Z,26.90
2023-02-16T17:55:50.383Z,26.90
2023-02-16T17:57:52.092Z,27.00
2023-02-16T17:59:53.770Z,27.10
2023-02-16T18:01:55.464Z,27.00
2023-02-16T18:04:00.363Z,27.10
2023-02-16T18:06:02.862Z,27.10
2023-02-16T18:08:05.728Z,27.10
2023-02-16T18:10:15.593Z,27.10
2023-02-16T18:12:17.730Z,27.20
2023-02-16T18:14:19.481Z,27.30
2023-02-16T18:16:26.010Z,27.40
2023-02-16T18:18:28.316Z,27.40
2023-02-16T18:20:35.253Z,27.30
2023-02-16T18:22:36.918Z,27.40
2023-02-16T18:24:38.737Z,27.30
2023-02-16T18:26:40.483Z,27.40
2023-02-16T18:28:45.453Z,27.40
2023-02-16T18:30:49.306Z,27.40
2023-02-16T18:32:51.184Z,27.50
2023-02-16T18:34:54.099Z,27.60
2023-02-16T18:36:55.943Z,28.10
2023-02-16T18:38:59.944Z,27.60
2023-02-16T18:41:01.674Z,27.60
2023-02-16T18:43:03.531Z,27.70
2023-02-16T18:45:05.863Z,27.60
2023-02-16T18:47:13.652Z,27.70
2023-02-16T18:49:15.291Z,27.70
2023-02-16T18:51:23.432Z,27.70
2023-02-16T18:53:25.144Z,27.80
2023-02-16T18:55:32.901Z,27.70
2023-02-16T18:57:34.697Z,27.70
2023-02-16T18:59:37.660Z,27.60
2023-02-16T19:01:40.107Z,27.70
2023-02-16T19:03:44.179Z,27.70
2023-02-16T19:05:48.967Z,27.80
2023-02-16T19:07:55.546Z,27.90
2023-02-16T19:09:57.745Z,28.10
2023-02-16T19:12:06.397Z,28.30
2023-02-16T19:14:09.220Z,28.30
2023-02-16T19:16:11.159Z,28.50
2023-02-16T19:18:12.914Z,28.40
2023-02-16T19:20:18.428Z,28.60
2023-02-16T19:22:20.122Z,28.60
2023-02-16T19:24:21.807Z,28.60
2023-02-16T19:26:26.688Z,28.50
2023-02-16T19:28:28.361Z,29.10
2023-02-16T19:30:30.147Z,28.60
2023-02-16T19:32:31.951Z,28.60
2023-02-16T19:34:36.533Z,28.60
2023-02-16T19:36:38.266Z,28.60
2023-02-16T19:38:42.892Z,28.60
2023-02-16T19:40:44.538Z,28.70
2023-02-16T19:42:46.218Z,28.60
2023-02-16T19:44:47.868Z,28.60
2023-02-16T19:46:49.557Z,28.60
2023-02-16T19:48:51.513Z,28.60
2023-02-16T19:51:00.245Z,28.30
2023-02-16T19:53:01.954Z,28.80
2023-02-16T19:55:03.748Z,28.60
2023-02-16T19:57:05.534Z,28.60
2023-02-16T19:59:08.007Z,28.60
2023-02-16T20:01:20.241Z,28.60
2023-02-16T20:03:22.010Z,28.70
2023-02-16T20:05:23.768Z,28.70
2023-02-16T20:07:25.496Z,28.70
2023-02-16T20:09:27.947Z,28.70
2023-02-16T20:11:30.916Z,28.70
2023-02-16T20:13:36.193Z,28.70
2023-02-16T20:15:41.103Z,28.70
2023-02-16T20:17:42.885Z,28.60
2023-02-16T20:19:46.960Z,28.70
2023-02-16T20:21:48.706Z,29.10
2023-02-16T20:23:56.549Z,28.60
2023-02-16T20:25:59.983Z,28.70
2023-02-16T20:28:01.763Z,28.60
2023-02-16T20:30:06.744Z,28.70
2023-02-16T20:32:08.539Z,28.60
2023-02-16T20:34:10.833Z,29.20
2023-02-16T20:36:13.039Z,28.60
2023-02-16T20:38:15.784Z,28.70
2023-02-16T20:40:20.212Z,28.70
2023-02-16T20:42:21.934Z,28.70
2023-02-16T20:44:24.363Z,28.60
2023-02-16T20:46:31.206Z,29.10
2023-02-16T20:48:34.181Z,28.70
2023-02-16T20:50:36.335Z,28.70
2023-02-16T20:52:41.501Z,28.70
2023-02-16T20:54:43.214Z,28.70
2023-02-16T20:56:44.910Z,28.70
2023-02-16T20:58:47.641Z,28.70
2023-02-16T21:00:49.667Z,28.70
2023-02-16T21:02:51.968Z,28.70
2023-02-16T21:04:53.740Z,28.70
2023-02-16T21:06:55.456Z,28.70
2023-02-16T21:08:57.642Z,28.70
2023-02-16T21:10:59.662Z,28.70
2023-02-16T21:13:01.347Z,28.70
2023-02-16T21:15:04.058Z,28.70
2023-02-16T21:17:06.123Z,28.70
2023-02-16T21:19:22.156Z,28.70
2023-02-16T21:21:24.612Z,28.70
2023-02-16T21:23:29.884Z,28.70
2023-02-16T21:25:31.571Z,28.70
2023-02-16T21:27:35.940Z,28.70
2023-02-16T21:29:40.504Z,28.80
2023-02-16T21:31:42.353Z,29.20
2023-02-16T21:33:47.748Z,29.00
2023-02-16T21:35:51.635Z,29.30
2023-02-16T21:37:55.420Z,29.50
2023-02-16T21:40:15.576Z,29.70
2023-02-16T21:42:17.306Z,29.90
2023-02-16T21:44:21.468Z,29.90
2023-02-16T21:46:26.368Z,29.90
2023-02-16T21:48:48.769Z,29.90
2023-02-16T21:50:50.650Z,30.00
2023-02-16T21:52:54.974Z,30.10
2023-02-16T21:55:15.422Z,30.40
2023-02-16T21:57:24.108Z,30.50
2023-02-16T21:59:28.260Z,30.70
2023-02-16T22:01:32.754Z,31.00
2023-02-16T22:03:37.236Z,31.10
2023-02-16T22:05:39.902Z,31.00
2023-02-16T22:07:41.898Z,31.10
2023-02-16T22:09:44.750Z,31.20
2023-02-16T22:11:47.539Z,31.70
2023-02-16T22:13:53.873Z,31.90
2023-02-16T22:15:55.577Z,32.60
2023-02-16T22:17:57.327Z,32.70
2023-02-16T22:19:59.128Z,33.20
2023-02-16T22:22:01.982Z,33.70
2023-02-16T22:24:04.882Z,34.10
2023-02-16T22:26:07.896Z,34.70
2023-02-16T22:28:10.720Z,35.00
2023-02-16T22:30:12.612Z,35.40
2023-02-16T22:32:14.680Z,36.20
2023-02-16T22:34:19.258Z,37.80
2023-02-16T22:36:20.995Z,37.90
2023-02-16T22:38:22.732Z,37.90
2023-02-16T22:40:27.551Z,38.70
2023-02-16T22:42:29.447Z,38.80
2023-02-16T22:44:31.263Z,39.20
2023-02-16T22:46:33.478Z,39.30
2023-02-16T22:48:36.010Z,39.70
2023-02-16T22:50:40.189Z,39.90
2023-02-16T22:52:41.950Z,40.30
2023-02-16T22:54:46.002Z,40.20
2023-02-16T22:56:47.805Z,40.50
2023-02-16T22:58:52.820Z,40.40
2023-02-16T23:00:55.794Z,40.50
2023-02-16T23:02:57.613Z,40.50
2023-02-16T23:05:00.436Z,40.50
2023-02-16T23:07:02.255Z,40.50
2023-02-16T23:09:11.379Z,40.80
2023-02-16T23:11:13.469Z,40.70
2023-02-16T23:13:15.227Z,40.80
2023-02-16T23:15:17.050Z,40.80
2023-02-16T23:17:21.814Z,40.90
2023-02-16T23:19:26.307Z,41.10
2023-02-16T23:21:31.210Z,41.10
2023-02-16T23:23:33.053Z,41.10
2023-02-16T23:25:34.731Z,41.10
2023-02-16T23:27:38.405Z,41.30
2023-02-16T23:29:40.122Z,41.20
2023-02-16T23:31:44.491Z,41.10
2023-02-16T23:33:52.137Z,41.10
2023-02-16T23:35:57.546Z,41.30
2023-02-16T23:38:01.395Z,41.20
2023-02-16T23:40:04.943Z,41.10
2023-02-16T23:42:06.633Z,41.30
2023-02-16T23:44:11.626Z,41.10
2023-02-16T23:46:14.656Z,41.10
2023-02-16T23:48:18.492Z,41.20
2023-02-16T23:50:20.170Z,41.20
2023-02-16T23:52:21.885Z,41.20
2023-02-16T23:54:23.571Z,41.30
2023-02-16T23:56:27.860Z,41.30
2023-02-16T23:58:32.031Z,41.60
